sensor_id;sensor_type;location;lat;lon;timestamp;temperature;humidity
22813;DHT22;11573;51.334;3.244;2023-07-16T00:00:02;17.40;99.90
22813;DHT22;11573;51.334;3.244;2023-07-16T00:02:31;17.40;99.90
22813;DHT22;11573;51.334;3.244;2023-07-16T00:04:58;17.40;99.90
22813;DHT22;11573;51.334;3.244;2023-07-16T00:07:25;17.30;99.90
22813;DHT22;11573;51.334;3.244;2023-07-16T00:09:53;17.40;99.90
22813;DHT22;11573;51.334;3.244;2023-07-16T00:12:20;17.40;99.90
22813;DHT22;11573;51.334;3.244;2023-07-16T00:14:47;17.40;99.90
22813;DHT22;11573;51.334;3.244;2023-07-16T00:17:14;17.40;99.90
22813;DHT22;11573;51.334;3.244;2023-07-16T00:19:41;17.40;99.90
22813;DHT22;11573;51.334;3.244;2023-07-16T00:22:08;17.40;99.90
22813;DHT22;11573;51.334;3.244;2023-07-16T00:24:35;17.40;99.90
22813;DHT22;11573;51.334;3.244;2023-07-16T00:27:02;17.40;99.90
22813;DHT22;11573;51.334;3.244;2023-07-16T00:29:30;17.40;99.90
22813;DHT22;11573;51.334;3.244;2023-07-16T00:31:57;17.40;99.90
22813;DHT22;11573;51.334;3.244;2023-07-16T00:34:24;17.30;99.90
22813;DHT22;11573;51.334;3.244;2023-07-16T00:36:51;17.30;99.90
22813;DHT22;11573;51.334;3.244;2023-07-16T00:39:18;17.30;99.90
22813;DHT22;11573;51.334;3.244;2023-07-16T00:41:46;17.20;99.90
22813;DHT22;11573;51.334;3.244;2023-07-16T00:44:14;17.20;99.90
22813;DHT22;11573;51.334;3.244;2023-07-16T00:46:41;17.20;99.90
22813;DHT22;11573;51.334;3.244;2023-07-16T00:49:08;17.20;99.90
22813;DHT22;11573;51.334;3.244;2023-07-16T00:51:35;17.20;99.90
22813;DHT22;11573;51.334;3.244;2023-07-16T00:54:03;17.30;99.90
22813;DHT22;11573;51.334;3.244;2023-07-16T00:56:30;17.30;99.90
22813;DHT22;11573;51.334;3.244;2023-07-16T00:58:58;17.40;99.90
22813;DHT22;11573;51.334;3.244;2023-07-16T01:01:25;17.40;99.90
22813;DHT22;11573;51.334;3.244;2023-07-16T01:03:53;17.40;99.90
22813;DHT22;11573;51.334;3.244;2023-07-16T01:06:30;17.30;99.90
22813;DHT22;11573;51.334;3.244;2023-07-16T01:09:08;17.30;99.90
22813;DHT22;11573;51.334;3.244;2023-07-16T01:11:37;17.20;99.90
22813;DHT22;11573;51.334;3.244;2023-07-16T01:14:07;17.30;99.90
22813;DHT22;11573;51.334;3.244;2023-07-16T01:16:34;17.30;99.90
22813;DHT22;11573;51.334;3.244;2023-07-16T01:19:02;17.40;99.90
22813;DHT22;11573;51.334;3.244;2023-07-16T01:21:35;17.40;99.90
22813;DHT22;11573;51.334;3.244;2023-07-16T01:30:01;17.50;99.90
22813;DHT22;11573;51.334;3.244;2023-07-16T01:32:33;17.40;99.90
22813;DHT22;11573;51.334;3.244;2023-07-16T01:35:03;17.30;99.90
22813;DHT22;11573;51.334;3.244;2023-07-16T01:37:32;17.10;99.90
22813;DHT22;11573;51.334;3.244;2023-07-16T01:39:59;16.70;99.90
22813;DHT22;11573;51.334;3.244;2023-07-16T01:42:26;16.60;99.90
22813;DHT22;11573;51.334;3.244;2023-07-16T01:44:53;16.50;99.90
22813;DHT22;11573;51.334;3.244;2023-07-16T01:49:55;16.30;99.90
22813;DHT22;11573;51.334;3.244;2023-07-16T01:52:22;16.40;99.90
22813;DHT22;11573;51.334;3.244;2023-07-16T01:54:49;16.30;99.90
22813;DHT22;11573;51.334;3.244;2023-07-16T01:57:20;16.20;99.90
22813;DHT22;11573;51.334;3.244;2023-07-16T01:59:47;16.20;99.90
22813;DHT22;11573;51.334;3.244;2023-07-16T02:02:14;16.30;99.90
22813;DHT22;11573;51.334;3.244;2023-07-16T02:04:41;16.30;99.90
22813;DHT22;11573;51.334;3.244;2023-07-16T02:07:08;16.40;99.90
22813;DHT22;11573;51.334;3.244;2023-07-16T02:09:35;16.30;99.90
22813;DHT22;11573;51.334;3.244;2023-07-16T02:12:03;16.40;99.90
22813;DHT22;11573;51.334;3.244;2023-07-16T02:14:30;16.40;99.90
22813;DHT22;11573;51.334;3.244;2023-07-16T02:16:57;16.40;99.90
22813;DHT22;11573;51.334;3.244;2023-07-16T02:19:24;16.40;99.90
22813;DHT22;11573;51.334;3.244;2023-07-16T02:21:55;16.50;99.90
22813;DHT22;11573;51.334;3.244;2023-07-16T02:24:22;16.50;99.90
22813;DHT22;11573;51.334;3.244;2023-07-16T02:26:50;16.60;99.90
22813;DHT22;11573;51.334;3.244;2023-07-16T02:29:17;16.60;99.90
22813;DHT22;11573;51.334;3.244;2023-07-16T02:31:44;16.60;99.90
22813;DHT22;11573;51.334;3.244;2023-07-16T02:34:13;16.60;99.90
22813;DHT22;11573;51.334;3.244;2023-07-16T02:36:40;16.50;99.90
22813;DHT22;11573;51.334;3.244;2023-07-16T02:39:07;16.50;99.90
22813;DHT22;11573;51.334;3.244;2023-07-16T02:41:34;16.40;99.90
22813;DHT22;11573;51.334;3.244;2023-07-16T02:44:04;16.40;99.90
22813;DHT22;11573;51.334;3.244;2023-07-16T02:46:32;16.40;99.90
22813;DHT22;11573;51.334;3.244;2023-07-16T02:49:00;16.40;99.90
22813;DHT22;11573;51.334;3.244;2023-07-16T02:51:27;16.40;99.90
22813;DHT22;11573;51.334;3.244;2023-07-16T02:53:54;16.40;99.90
22813;DHT22;11573;51.334;3.244;2023-07-16T02:56:21;16.40;99.90
22813;DHT22;11573;51.334;3.244;2023-07-16T02:58:48;16.30;99.90
22813;DHT22;11573;51.334;3.244;2023-07-16T03:01:15;16.30;99.90
22813;DHT22;11573;51.334;3.244;2023-07-16T03:03:43;16.30;99.90
22813;DHT22;11573;51.334;3.244;2023-07-16T03:06:10;16.30;99.90
22813;DHT22;11573;51.334;3.244;2023-07-16T03:08:37;16.30;99.90
22813;DHT22;11573;51.334;3.244;2023-07-16T03:11:04;16.30;99.90
22813;DHT22;11573;51.334;3.244;2023-07-16T03:13:31;16.40;99.90
22813;DHT22;11573;51.334;3.244;2023-07-16T03:15:58;16.40;99.90
22813;DHT22;11573;51.334;3.244;2023-07-16T03:18:29;16.40;99.90
22813;DHT22;11573;51.334;3.244;2023-07-16T03:20:57;16.50;99.90
22813;DHT22;11573;51.334;3.244;2023-07-16T03:23:24;16.50;99.90
22813;DHT22;11573;51.334;3.244;2023-07-16T03:25:51;16.50;99.90
22813;DHT22;11573;51.334;3.244;2023-07-16T03:28:19;16.60;99.90
22813;DHT22;11573;51.334;3.244;2023-07-16T03:30:47;16.60;99.90
22813;DHT22;11573;51.334;3.244;2023-07-16T03:33:15;16.50;99.90
22813;DHT22;11573;51.334;3.244;2023-07-16T03:35:43;16.50;99.90
22813;DHT22;11573;51.334;3.244;2023-07-16T03:38:11;16.50;99.90
22813;DHT22;11573;51.334;3.244;2023-07-16T03:40:38;16.40;99.90
22813;DHT22;11573;51.334;3.244;2023-07-16T03:43:06;16.40;99.90
22813;DHT22;11573;51.334;3.244;2023-07-16T03:45:35;16.40;99.90
22813;DHT22;11573;51.334;3.244;2023-07-16T03:48:02;16.40;99.90
22813;DHT22;11573;51.334;3.244;2023-07-16T03:50:29;16.40;99.90
22813;DHT22;11573;51.334;3.244;2023-07-16T03:52:57;16.30;99.90
22813;DHT22;11573;51.334;3.244;2023-07-16T03:55:24;16.30;99.90
22813;DHT22;11573;51.334;3.244;2023-07-16T03:57:51;16.30;99.90
22813;DHT22;11573;51.334;3.244;2023-07-16T04:00:19;16.30;99.90
22813;DHT22;11573;51.334;3.244;2023-07-16T04:02:49;16.40;99.90
22813;DHT22;11573;51.334;3.244;2023-07-16T04:05:17;16.40;99.90
22813;DHT22;11573;51.334;3.244;2023-07-16T04:07:47;16.50;99.90
22813;DHT22;11573;51.334;3.244;2023-07-16T04:10:14;16.50;99.90
22813;DHT22;11573;51.334;3.244;2023-07-16T04:12:41;16.60;99.90
22813;DHT22;11573;51.334;3.244;2023-07-16T04:15:08;16.60;99.90
22813;DHT22;11573;51.334;3.244;2023-07-16T04:17:38;16.60;99.90
22813;DHT22;11573;51.334;3.244;2023-07-16T04:20:06;16.70;99.90
22813;DHT22;11573;51.334;3.244;2023-07-16T04:22:34;16.70;99.90
22813;DHT22;11573;51.334;3.244;2023-07-16T04:25:02;16.70;99.90
22813;DHT22;11573;51.334;3.244;2023-07-16T04:27:30;16.80;99.90
22813;DHT22;11573;51.334;3.244;2023-07-16T04:29:57;16.80;99.90
22813;DHT22;11573;51.334;3.244;2023-07-16T04:32:24;16.90;99.90
22813;DHT22;11573;51.334;3.244;2023-07-16T04:34:51;17.00;99.90
22813;DHT22;11573;51.334;3.244;2023-07-16T04:37:18;17.00;99.90
22813;DHT22;11573;51.334;3.244;2023-07-16T04:39:45;17.10;99.90
22813;DHT22;11573;51.334;3.244;2023-07-16T04:42:12;17.00;99.90
22813;DHT22;11573;51.334;3.244;2023-07-16T04:44:39;17.10;99.90
22813;DHT22;11573;51.334;3.244;2023-07-16T04:47:06;17.10;99.90
22813;DHT22;11573;51.334;3.244;2023-07-16T04:49:34;17.10;99.90
22813;DHT22;11573;51.334;3.244;2023-07-16T04:52:02;17.10;99.90
22813;DHT22;11573;51.334;3.244;2023-07-16T04:54:34;16.90;99.90
22813;DHT22;11573;51.334;3.244;2023-07-16T04:57:01;17.00;99.90
22813;DHT22;11573;51.334;3.244;2023-07-16T04:59:28;17.00;99.90
22813;DHT22;11573;51.334;3.244;2023-07-16T05:01:55;17.00;99.90
22813;DHT22;11573;51.334;3.244;2023-07-16T05:04:22;16.90;99.90
22813;DHT22;11573;51.334;3.244;2023-07-16T05:06:49;17.00;99.90
22813;DHT22;11573;51.334;3.244;2023-07-16T05:09:16;17.10;99.90
22813;DHT22;11573;51.334;3.244;2023-07-16T05:11:43;17.10;99.90
22813;DHT22;11573;51.334;3.244;2023-07-16T05:14:10;17.10;99.90
22813;DHT22;11573;51.334;3.244;2023-07-16T05:16:37;17.20;99.90
22813;DHT22;11573;51.334;3.244;2023-07-16T05:19:04;17.30;99.90
22813;DHT22;11573;51.334;3.244;2023-07-16T05:21:31;17.30;99.90
22813;DHT22;11573;51.334;3.244;2023-07-16T05:23:58;17.30;99.90
22813;DHT22;11573;51.334;3.244;2023-07-16T05:26:25;17.20;99.90
22813;DHT22;11573;51.334;3.244;2023-07-16T05:28:52;17.20;99.90
22813;DHT22;11573;51.334;3.244;2023-07-16T05:31:19;17.20;99.90
22813;DHT22;11573;51.334;3.244;2023-07-16T05:33:46;17.70;99.90
22813;DHT22;11573;51.334;3.244;2023-07-16T05:36:13;18.80;99.90
22813;DHT22;11573;51.334;3.244;2023-07-16T05:38:40;18.90;99.90
22813;DHT22;11573;51.334;3.244;2023-07-16T05:41:07;18.60;99.90
22813;DHT22;11573;51.334;3.244;2023-07-16T05:43:34;18.10;99.90
22813;DHT22;11573;51.334;3.244;2023-07-16T05:46:01;17.80;99.90
22813;DHT22;11573;51.334;3.244;2023-07-16T05:48:28;17.60;99.90
22813;DHT22;11573;51.334;3.244;2023-07-16T05:50:55;17.60;99.90
22813;DHT22;11573;51.334;3.244;2023-07-16T05:53:22;17.50;99.90
22813;DHT22;11573;51.334;3.244;2023-07-16T05:55:49;17.90;99.90
22813;DHT22;11573;51.334;3.244;2023-07-16T05:58:19;18.80;99.90
22813;DHT22;11573;51.334;3.244;2023-07-16T06:00:46;19.70;99.90
22813;DHT22;11573;51.334;3.244;2023-07-16T06:03:13;20.00;99.90
22813;DHT22;11573;51.334;3.244;2023-07-16T06:05:40;19.70;99.90
22813;DHT22;11573;51.334;3.244;2023-07-16T06:08:07;19.20;99.90
22813;DHT22;11573;51.334;3.244;2023-07-16T06:10:34;19.10;99.90
22813;DHT22;11573;51.334;3.244;2023-07-16T06:13:01;18.70;99.90
22813;DHT22;11573;51.334;3.244;2023-07-16T06:15:28;18.20;99.90
22813;DHT22;11573;51.334;3.244;2023-07-16T06:17:55;17.70;99.90
22813;DHT22;11573;51.334;3.244;2023-07-16T06:20:22;17.30;99.90
22813;DHT22;11573;51.334;3.244;2023-07-16T06:22:49;17.20;99.90
22813;DHT22;11573;51.334;3.244;2023-07-16T06:25:16;17.10;99.90
22813;DHT22;11573;51.334;3.244;2023-07-16T06:27:43;16.90;99.90
22813;DHT22;11573;51.334;3.244;2023-07-16T06:30:10;16.90;99.90
22813;DHT22;11573;51.334;3.244;2023-07-16T06:32:37;16.90;99.90
22813;DHT22;11573;51.334;3.244;2023-07-16T06:35:04;17.00;99.90
22813;DHT22;11573;51.334;3.244;2023-07-16T06:37:32;17.10;99.90
22813;DHT22;11573;51.334;3.244;2023-07-16T06:39:59;17.20;99.90
22813;DHT22;11573;51.334;3.244;2023-07-16T06:42:26;17.40;99.90
22813;DHT22;11573;51.334;3.244;2023-07-16T06:44:53;17.50;99.90
22813;DHT22;11573;51.334;3.244;2023-07-16T06:47:20;17.60;99.90
22813;DHT22;11573;51.334;3.244;2023-07-16T06:49:47;17.70;99.90
22813;DHT22;11573;51.334;3.244;2023-07-16T06:52:21;18.10;99.90
22813;DHT22;11573;51.334;3.244;2023-07-16T06:54:49;18.10;99.90
22813;DHT22;11573;51.334;3.244;2023-07-16T06:57:16;18.20;99.90
22813;DHT22;11573;51.334;3.244;2023-07-16T06:59:42;18.20;99.90
22813;DHT22;11573;51.334;3.244;2023-07-16T07:02:10;18.20;99.90
22813;DHT22;11573;51.334;3.244;2023-07-16T07:04:37;18.50;99.90
22813;DHT22;11573;51.334;3.244;2023-07-16T07:07:04;18.80;99.90
22813;DHT22;11573;51.334;3.244;2023-07-16T07:09:31;19.10;99.90
22813;DHT22;11573;51.334;3.244;2023-07-16T07:11:58;19.20;99.90
22813;DHT22;11573;51.334;3.244;2023-07-16T07:14:25;19.30;99.90
22813;DHT22;11573;51.334;3.244;2023-07-16T07:16:52;19.00;99.90
22813;DHT22;11573;51.334;3.244;2023-07-16T07:19:19;18.80;99.90
22813;DHT22;11573;51.334;3.244;2023-07-16T07:21:46;18.70;99.90
22813;DHT22;11573;51.334;3.244;2023-07-16T07:24:13;18.80;99.90
22813;DHT22;11573;51.334;3.244;2023-07-16T07:26:40;19.00;99.90
22813;DHT22;11573;51.334;3.244;2023-07-16T07:29:07;19.00;99.90
22813;DHT22;11573;51.334;3.244;2023-07-16T07:31:34;18.80;99.90
22813;DHT22;11573;51.334;3.244;2023-07-16T07:34:01;18.90;99.90
22813;DHT22;11573;51.334;3.244;2023-07-16T07:36:29;19.20;99.90
22813;DHT22;11573;51.334;3.244;2023-07-16T07:38:56;19.30;99.90
22813;DHT22;11573;51.334;3.244;2023-07-16T07:41:23;19.40;99.90
22813;DHT22;11573;51.334;3.244;2023-07-16T07:43:50;19.50;99.90
22813;DHT22;11573;51.334;3.244;2023-07-16T07:46:17;19.60;99.90
22813;DHT22;11573;51.334;3.244;2023-07-16T07:48:45;19.70;99.90
22813;DHT22;11573;51.334;3.244;2023-07-16T07:51:12;19.90;99.90
22813;DHT22;11573;51.334;3.244;2023-07-16T07:53:39;20.00;99.90
22813;DHT22;11573;51.334;3.244;2023-07-16T07:56:06;20.20;99.90
22813;DHT22;11573;51.334;3.244;2023-07-16T07:58:33;20.00;99.90
22813;DHT22;11573;51.334;3.244;2023-07-16T08:01:07;19.40;99.90
22813;DHT22;11573;51.334;3.244;2023-07-16T08:03:34;19.50;99.90
22813;DHT22;11573;51.334;3.244;2023-07-16T08:06:02;19.80;99.90
22813;DHT22;11573;51.334;3.244;2023-07-16T08:08:29;19.70;99.90
22813;DHT22;11573;51.334;3.244;2023-07-16T08:10:56;19.60;99.90
22813;DHT22;11573;51.334;3.244;2023-07-16T08:13:23;19.70;99.90
22813;DHT22;11573;51.334;3.244;2023-07-16T08:15:50;19.60;99.90
22813;DHT22;11573;51.334;3.244;2023-07-16T08:18:17;19.70;99.90
22813;DHT22;11573;51.334;3.244;2023-07-16T08:20:46;19.80;99.90
22813;DHT22;11573;51.334;3.244;2023-07-16T08:23:13;19.80;99.90
22813;DHT22;11573;51.334;3.244;2023-07-16T08:25:40;19.70;99.90
22813;DHT22;11573;51.334;3.244;2023-07-16T08:28:07;19.40;99.90
22813;DHT22;11573;51.334;3.244;2023-07-16T08:30:34;19.00;99.90
22813;DHT22;11573;51.334;3.244;2023-07-16T08:33:01;19.20;99.90
22813;DHT22;11573;51.334;3.244;2023-07-16T08:35:29;19.70;99.90
22813;DHT22;11573;51.334;3.244;2023-07-16T08:37:56;20.20;99.90
22813;DHT22;11573;51.334;3.244;2023-07-16T08:40:23;20.40;99.90
22813;DHT22;11573;51.334;3.244;2023-07-16T08:42:51;20.40;99.90
22813;DHT22;11573;51.334;3.244;2023-07-16T08:45:19;20.10;99.90
22813;DHT22;11573;51.334;3.244;2023-07-16T08:47:49;20.20;99.90
22813;DHT22;11573;51.334;3.244;2023-07-16T08:50:16;20.50;99.90
22813;DHT22;11573;51.334;3.244;2023-07-16T08:52:45;21.00;99.90
22813;DHT22;11573;51.334;3.244;2023-07-16T08:55:13;21.10;99.90
22813;DHT22;11573;51.334;3.244;2023-07-16T08:57:40;21.20;99.90
22813;DHT22;11573;51.334;3.244;2023-07-16T09:00:08;21.70;99.90
22813;DHT22;11573;51.334;3.244;2023-07-16T09:02:36;21.80;99.90
22813;DHT22;11573;51.334;3.244;2023-07-16T09:05:04;21.80;99.90
22813;DHT22;11573;51.334;3.244;2023-07-16T09:07:31;21.40;99.90
22813;DHT22;11573;51.334;3.244;2023-07-16T09:09:59;21.40;99.90
22813;DHT22;11573;51.334;3.244;2023-07-16T09:12:27;21.60;99.90
22813;DHT22;11573;51.334;3.244;2023-07-16T09:14:54;21.30;99.90
22813;DHT22;11573;51.334;3.244;2023-07-16T09:17:22;20.90;99.90
22813;DHT22;11573;51.334;3.244;2023-07-16T09:19:53;20.90;99.90
22813;DHT22;11573;51.334;3.244;2023-07-16T09:22:20;21.40;99.90
22813;DHT22;11573;51.334;3.244;2023-07-16T09:24:48;21.90;99.90
22813;DHT22;11573;51.334;3.244;2023-07-16T09:27:15;21.90;99.90
22813;DHT22;11573;51.334;3.244;2023-07-16T09:29:42;21.70;99.90
22813;DHT22;11573;51.334;3.244;2023-07-16T09:32:10;21.50;99.90
22813;DHT22;11573;51.334;3.244;2023-07-16T09:34:37;21.20;99.90
22813;DHT22;11573;51.334;3.244;2023-07-16T09:37:05;21.20;99.90
22813;DHT22;11573;51.334;3.244;2023-07-16T09:39:33;21.50;99.90
22813;DHT22;11573;51.334;3.244;2023-07-16T09:42:02;21.40;99.90
22813;DHT22;11573;51.334;3.244;2023-07-16T09:44:29;21.60;99.90
22813;DHT22;11573;51.334;3.244;2023-07-16T09:46:57;21.90;99.90
22813;DHT22;11573;51.334;3.244;2023-07-16T09:49:28;22.20;99.90
22813;DHT22;11573;51.334;3.244;2023-07-16T09:51:57;21.80;99.90
22813;DHT22;11573;51.334;3.244;2023-07-16T09:54:25;21.50;99.90
22813;DHT22;11573;51.334;3.244;2023-07-16T09:56:58;21.20;99.90
22813;DHT22;11573;51.334;3.244;2023-07-16T09:59:31;21.10;99.90
22813;DHT22;11573;51.334;3.244;2023-07-16T10:02:01;21.30;99.90
22813;DHT22;11573;51.334;3.244;2023-07-16T10:04:38;22.00;99.90
22813;DHT22;11573;51.334;3.244;2023-07-16T10:07:21;22.60;99.90
22813;DHT22;11573;51.334;3.244;2023-07-16T10:09:57;22.80;99.90
22813;DHT22;11573;51.334;3.244;2023-07-16T10:12:25;22.50;99.90
22813;DHT22;11573;51.334;3.244;2023-07-16T10:14:56;22.10;99.90
22813;DHT22;11573;51.334;3.244;2023-07-16T10:17:24;21.70;99.90
22813;DHT22;11573;51.334;3.244;2023-07-16T10:22:48;21.70;99.90
22813;DHT22;11573;51.334;3.244;2023-07-16T10:27:47;22.20;99.90
22813;DHT22;11573;51.334;3.244;2023-07-16T10:30:17;22.20;99.90
22813;DHT22;11573;51.334;3.244;2023-07-16T10:32:45;22.40;99.90
22813;DHT22;11573;51.334;3.244;2023-07-16T10:35:13;22.30;99.90
22813;DHT22;11573;51.334;3.244;2023-07-16T10:37:40;21.90;99.90
22813;DHT22;11573;51.334;3.244;2023-07-16T10:40:12;21.80;99.90
22813;DHT22;11573;51.334;3.244;2023-07-16T10:42:41;21.50;99.90
22813;DHT22;11573;51.334;3.244;2023-07-16T10:45:13;21.40;99.90
22813;DHT22;11573;51.334;3.244;2023-07-16T10:47:54;21.50;99.90
22813;DHT22;11573;51.334;3.244;2023-07-16T10:50:21;21.20;99.90
22813;DHT22;11573;51.334;3.244;2023-07-16T10:52:56;21.30;99.90
22813;DHT22;11573;51.334;3.244;2023-07-16T10:55:25;21.70;99.90
22813;DHT22;11573;51.334;3.244;2023-07-16T10:57:53;22.10;99.90
22813;DHT22;11573;51.334;3.244;2023-07-16T11:00:21;21.70;99.90
22813;DHT22;11573;51.334;3.244;2023-07-16T11:02:52;21.30;99.90
22813;DHT22;11573;51.334;3.244;2023-07-16T11:05:19;21.50;99.90
22813;DHT22;11573;51.334;3.244;2023-07-16T11:07:47;22.00;99.90
22813;DHT22;11573;51.334;3.244;2023-07-16T11:10:20;22.60;99.90
22813;DHT22;11573;51.334;3.244;2023-07-16T11:12:51;23.10;99.90
22813;DHT22;11573;51.334;3.244;2023-07-16T11:15:32;23.50;99.90
22813;DHT22;11573;51.334;3.244;2023-07-16T11:18:03;23.40;99.90
22813;DHT22;11573;51.334;3.244;2023-07-16T11:20:30;22.90;99.90
22813;DHT22;11573;51.334;3.244;2023-07-16T11:22:59;22.50;99.90
22813;DHT22;11573;51.334;3.244;2023-07-16T11:25:29;22.60;99.90
22813;DHT22;11573;51.334;3.244;2023-07-16T11:27:56;23.00;99.90
22813;DHT22;11573;51.334;3.244;2023-07-16T11:30:24;22.60;99.90
22813;DHT22;11573;51.334;3.244;2023-07-16T11:32:51;22.70;99.90
22813;DHT22;11573;51.334;3.244;2023-07-16T11:35:20;23.10;99.90
22813;DHT22;11573;51.334;3.244;2023-07-16T11:37:47;23.20;99.90
22813;DHT22;11573;51.334;3.244;2023-07-16T11:40:17;23.30;99.90
22813;DHT22;11573;51.334;3.244;2023-07-16T11:42:45;23.50;99.90
22813;DHT22;11573;51.334;3.244;2023-07-16T11:45:20;23.50;99.90
22813;DHT22;11573;51.334;3.244;2023-07-16T11:47:47;23.60;99.90
22813;DHT22;11573;51.334;3.244;2023-07-16T11:50:14;23.50;99.90
22813;DHT22;11573;51.334;3.244;2023-07-16T11:52:42;23.50;99.90
22813;DHT22;11573;51.334;3.244;2023-07-16T11:55:09;23.30;99.90
22813;DHT22;11573;51.334;3.244;2023-07-16T11:57:36;23.50;99.90
22813;DHT22;11573;51.334;3.244;2023-07-16T12:00:04;23.70;99.90
22813;DHT22;11573;51.334;3.244;2023-07-16T12:02:31;23.60;99.90
22813;DHT22;11573;51.334;3.244;2023-07-16T12:05:00;23.70;99.90
22813;DHT22;11573;51.334;3.244;2023-07-16T12:07:36;24.30;99.90
22813;DHT22;11573;51.334;3.244;2023-07-16T12:10:04;24.30;99.90
22813;DHT22;11573;51.334;3.244;2023-07-16T12:12:33;24.20;99.90
22813;DHT22;11573;51.334;3.244;2023-07-16T12:15:00;24.20;99.90
22813;DHT22;11573;51.334;3.244;2023-07-16T12:17:27;23.80;99.90
22813;DHT22;11573;51.334;3.244;2023-07-16T12:19:55;23.70;99.90
22813;DHT22;11573;51.334;3.244;2023-07-16T12:22:23;23.80;99.90
22813;DHT22;11573;51.334;3.244;2023-07-16T12:24:50;24.00;99.90
22813;DHT22;11573;51.334;3.244;2023-07-16T12:27:18;24.00;99.90
22813;DHT22;11573;51.334;3.244;2023-07-16T12:29:45;23.60;99.90
22813;DHT22;11573;51.334;3.244;2023-07-16T12:32:13;23.50;99.90
22813;DHT22;11573;51.334;3.244;2023-07-16T12:34:40;23.30;99.90
22813;DHT22;11573;51.334;3.244;2023-07-16T12:37:07;22.90;99.90
22813;DHT22;11573;51.334;3.244;2023-07-16T12:39:34;22.70;99.90
22813;DHT22;11573;51.334;3.244;2023-07-16T12:42:01;22.80;99.90
22813;DHT22;11573;51.334;3.244;2023-07-16T12:44:29;22.80;99.90
22813;DHT22;11573;51.334;3.244;2023-07-16T12:46:56;23.40;99.90
22813;DHT22;11573;51.334;3.244;2023-07-16T12:49:24;23.90;99.90
22813;DHT22;11573;51.334;3.244;2023-07-16T12:51:51;24.60;99.90
22813;DHT22;11573;51.334;3.244;2023-07-16T12:54:18;24.90;99.90
22813;DHT22;11573;51.334;3.244;2023-07-16T12:56:45;25.10;99.90
22813;DHT22;11573;51.334;3.244;2023-07-16T12:59:12;24.90;99.90
22813;DHT22;11573;51.334;3.244;2023-07-16T13:01:39;24.40;99.90
22813;DHT22;11573;51.334;3.244;2023-07-16T13:04:06;24.60;99.90
22813;DHT22;11573;51.334;3.244;2023-07-16T13:06:33;24.30;99.90
22813;DHT22;11573;51.334;3.244;2023-07-16T13:09:00;24.20;99.90
22813;DHT22;11573;51.334;3.244;2023-07-16T13:11:27;24.20;99.90
22813;DHT22;11573;51.334;3.244;2023-07-16T13:13:54;24.20;99.90
22813;DHT22;11573;51.334;3.244;2023-07-16T13:16:21;24.50;99.90
22813;DHT22;11573;51.334;3.244;2023-07-16T13:18:48;24.60;99.90
22813;DHT22;11573;51.334;3.244;2023-07-16T13:21:15;24.80;99.90
22813;DHT22;11573;51.334;3.244;2023-07-16T13:23:42;24.70;99.90
22813;DHT22;11573;51.334;3.244;2023-07-16T13:26:09;24.60;99.90
22813;DHT22;11573;51.334;3.244;2023-07-16T13:28:36;24.50;99.90
22813;DHT22;11573;51.334;3.244;2023-07-16T13:31:03;24.20;99.90
22813;DHT22;11573;51.334;3.244;2023-07-16T13:33:30;24.20;99.90
22813;DHT22;11573;51.334;3.244;2023-07-16T13:35:57;23.80;99.90
22813;DHT22;11573;51.334;3.244;2023-07-16T13:38:28;23.80;99.90
22813;DHT22;11573;51.334;3.244;2023-07-16T13:40:55;24.20;99.90
22813;DHT22;11573;51.334;3.244;2023-07-16T13:43:23;24.60;99.90
22813;DHT22;11573;51.334;3.244;2023-07-16T13:45:50;24.40;99.90
22813;DHT22;11573;51.334;3.244;2023-07-16T13:48:17;24.60;99.90
22813;DHT22;11573;51.334;3.244;2023-07-16T13:50:44;24.40;99.90
22813;DHT22;11573;51.334;3.244;2023-07-16T13:53:11;23.80;99.90
22813;DHT22;11573;51.334;3.244;2023-07-16T13:55:38;23.60;99.90
22813;DHT22;11573;51.334;3.244;2023-07-16T13:58:05;23.40;99.90
22813;DHT22;11573;51.334;3.244;2023-07-16T14:00:32;23.30;99.90
22813;DHT22;11573;51.334;3.244;2023-07-16T14:02:59;23.30;99.90
22813;DHT22;11573;51.334;3.244;2023-07-16T14:05:27;23.10;99.90
22813;DHT22;11573;51.334;3.244;2023-07-16T14:07:54;23.00;99.90
22813;DHT22;11573;51.334;3.244;2023-07-16T14:10:21;23.30;99.90
22813;DHT22;11573;51.334;3.244;2023-07-16T14:12:48;23.60;99.90
22813;DHT22;11573;51.334;3.244;2023-07-16T14:15:15;23.80;99.90
22813;DHT22;11573;51.334;3.244;2023-07-16T14:17:44;23.60;99.90
22813;DHT22;11573;51.334;3.244;2023-07-16T14:20:11;23.90;99.90
22813;DHT22;11573;51.334;3.244;2023-07-16T14:22:39;23.90;99.90
22813;DHT22;11573;51.334;3.244;2023-07-16T14:25:06;24.40;99.90
22813;DHT22;11573;51.334;3.244;2023-07-16T14:27:33;24.40;99.90
22813;DHT22;11573;51.334;3.244;2023-07-16T14:30:00;24.60;99.90
22813;DHT22;11573;51.334;3.244;2023-07-16T14:32:33;24.50;99.90
22813;DHT22;11573;51.334;3.244;2023-07-16T14:35:00;24.40;99.90
22813;DHT22;11573;51.334;3.244;2023-07-16T14:37:28;23.90;99.90
22813;DHT22;11573;51.334;3.244;2023-07-16T14:39:55;23.80;99.90
22813;DHT22;11573;51.334;3.244;2023-07-16T14:42:22;23.90;99.90
22813;DHT22;11573;51.334;3.244;2023-07-16T14:44:49;24.20;99.90
22813;DHT22;11573;51.334;3.244;2023-07-16T14:47:16;24.20;99.90
22813;DHT22;11573;51.334;3.244;2023-07-16T14:49:43;24.10;99.90
22813;DHT22;11573;51.334;3.244;2023-07-16T14:52:11;24.50;99.90
22813;DHT22;11573;51.334;3.244;2023-07-16T14:54:38;24.60;99.90
22813;DHT22;11573;51.334;3.244;2023-07-16T14:57:05;24.90;99.90
22813;DHT22;11573;51.334;3.244;2023-07-16T14:59:32;25.00;99.90
22813;DHT22;11573;51.334;3.244;2023-07-16T15:02:01;24.40;99.90
22813;DHT22;11573;51.334;3.244;2023-07-16T15:04:29;24.30;99.90
22813;DHT22;11573;51.334;3.244;2023-07-16T15:06:56;24.00;99.90
22813;DHT22;11573;51.334;3.244;2023-07-16T15:09:23;23.80;99.90
22813;DHT22;11573;51.334;3.244;2023-07-16T15:11:51;23.80;99.90
22813;DHT22;11573;51.334;3.244;2023-07-16T15:14:18;23.80;99.90
22813;DHT22;11573;51.334;3.244;2023-07-16T15:16:45;24.00;99.90
22813;DHT22;11573;51.334;3.244;2023-07-16T15:19:12;24.00;99.90
22813;DHT22;11573;51.334;3.244;2023-07-16T15:21:39;24.00;99.90
22813;DHT22;11573;51.334;3.244;2023-07-16T15:24:07;24.20;99.90
22813;DHT22;11573;51.334;3.244;2023-07-16T15:26:34;24.20;99.90
22813;DHT22;11573;51.334;3.244;2023-07-16T15:29:01;24.40;99.90
22813;DHT22;11573;51.334;3.244;2023-07-16T15:31:28;24.50;99.90
22813;DHT22;11573;51.334;3.244;2023-07-16T15:33:56;24.50;99.90
22813;DHT22;11573;51.334;3.244;2023-07-16T15:36:25;24.30;99.90
22813;DHT22;11573;51.334;3.244;2023-07-16T15:38:52;24.30;99.90
22813;DHT22;11573;51.334;3.244;2023-07-16T15:41:20;24.60;99.90
22813;DHT22;11573;51.334;3.244;2023-07-16T15:43:50;25.00;99.90
22813;DHT22;11573;51.334;3.244;2023-07-16T15:46:18;24.90;99.90